createdAt,value
2023-03-20T00:02:06.922Z,4.82
2023-03-20T00:04:34.285Z,4.70
2023-03-20T00:07:01.766Z,4.92
2023-03-20T00:09:28.845Z,4.87
2023-03-20T00:11:56.466Z,4.85
2023-03-20T00:14:25.073Z,4.75
2023-03-20T00:16:52.686Z,4.67
2023-03-20T00:19:26.060Z,4.58
2023-03-20T00:21:54.448Z,4.77
2023-03-20T00:24:22.425Z,4.72
2023-03-20T00:26:51.557Z,4.79
2023-03-20T00:29:26.415Z,4.71
2023-03-20T00:31:54.925Z,4.52
2023-03-20T00:34:24.072Z,4.48
2023-03-20T00:36:51.879Z,4.73
2023-03-20T00:39:19.250Z,4.67
2023-03-20T00:42:01.017Z,4.58
2023-03-20T00:44:34.022Z,4.40
2023-03-20T00:47:11.537Z,4.53
2023-03-20T00:49:38.646Z,4.71
2023-03-20T00:52:06.776Z,4.62
2023-03-20T00:54:33.775Z,4.62
2023-03-20T00:57:04.277Z,4.58
2023-03-20T00:59:36.320Z,4.50
2023-03-20T01:02:04.357Z,4.55
2023-03-20T01:04:39.528Z,4.62
2023-03-20T01:07:10.913Z,4.59
2023-03-20T01:09:37.915Z,4.51
2023-03-20T01:12:05.835Z,4.29
2023-03-20T01:14:32.966Z,4.17
2023-03-20T01:17:00.047Z,4.34
2023-03-20T01:19:27.133Z,4.40
2023-03-20T01:21:54.274Z,4.40
2023-03-20T01:24:21.446Z,4.35
2023-03-20T01:26:49.396Z,4.22
2023-03-20T01:29:27.775Z,4.13
2023-03-20T01:31:55.467Z,4.31
2023-03-20T01:34:25.533Z,4.28
2023-03-20T01:36:54.790Z,4.20
2023-03-20T01:39:24.643Z,4.06
2023-03-20T01:41:53.216Z,4.03
2023-03-20T01:44:27.350Z,4.23
2023-03-20T01:46:58.379Z,4.35
2023-03-20T01:49:26.533Z,4.44
2023-03-20T01:51:57.203Z,4.33
2023-03-20T01:55:35.564Z,4.30
2023-03-20T01:58:07.917Z,4.32
2023-03-20T02:00:36.866Z,4.38
2023-03-20T02:03:08.258Z,4.35
2023-03-20T02:06:01.367Z,4.13
2023-03-20T02:08:50.818Z,4.10
2023-03-20T02:11:20.592Z,4.24
2023-03-20T02:13:48.101Z,4.31
2023-03-20T02:16:16.959Z,4.34
2023-03-20T02:18:56.480Z,4.09
2023-03-20T02:21:37.960Z,3.99
2023-03-20T02:24:24.210Z,4.03
2023-03-20T02:27:04.030Z,4.20
2023-03-20T02:30:15.574Z,4.15
2023-03-20T02:33:01.292Z,3.99
2023-03-20T02:36:00.037Z,3.95
2023-03-20T02:39:05.604Z,4.14
2023-03-20T02:41:48.118Z,4.24
2023-03-20T02:44:45.545Z,4.17
2023-03-20T02:47:31.912Z,4.08
2023-03-20T02:50:17.012Z,4.01
2023-03-20T02:53:10.356Z,4.13
2023-03-20T02:56:11.746Z,4.00
2023-03-20T02:58:55.537Z,4.02
2023-03-20T03:01:52.666Z,3.94
2023-03-20T03:04:26.360Z,3.95
2023-03-20T03:06:56.124Z,3.96
2023-03-20T03:09:30.733Z,3.89
2023-03-20T03:12:10.754Z,3.89
2023-03-20T03:14:53.801Z,3.79
2023-03-20T03:17:24.678Z,3.80
2023-03-20T03:19:56.110Z,3.82
2023-03-20T03:22:24.579Z,3.89
2023-03-20T03:24:54.104Z,3.94
2023-03-20T03:27:21.460Z,4.02
2023-03-20T03:29:56.745Z,4.00
2023-03-20T03:32:29.715Z,4.06
2023-03-20T03:34:57.831Z,4.11
2023-03-20T03:38:04.082Z,4.14
2023-03-20T03:40:51.896Z,4.15
2023-03-20T03:43:21.553Z,4.17
2023-03-20T03:45:55.159Z,4.27
2023-03-20T03:48:26.888Z,4.15
2023-03-20T03:50:57.596Z,4.07
2023-03-20T03:53:36.821Z,3.88
2023-03-20T03:56:08.999Z,3.93
2023-03-20T03:59:09.171Z,4.02
2023-03-20T04:01:38.668Z,3.98
2023-03-20T04:04:09.800Z,3.86
2023-03-20T04:06:37.632Z,3.83
2023-03-20T04:09:06.608Z,4.03
2023-03-20T04:11:35.874Z,4.04
2023-03-20T04:14:03.101Z,4.11
2023-03-20T04:16:31.251Z,4.11
2023-03-20T04:18:58.573Z,4.11
2023-03-20T04:21:25.979Z,4.03
2023-03-20T04:23:52.957Z,3.99
2023-03-20T04:26:22.620Z,4.03
2023-03-20T04:28:50.517Z,4.01
2023-03-20T04:31:41.890Z,4.15
2023-03-20T04:34:32.228Z,4.06
2023-03-20T04:37:25.392Z,3.95
2023-03-20T04:40:06.354Z,4.02
2023-03-20T04:42:33.730Z,3.98
2023-03-20T04:45:05.027Z,3.94
2023-03-20T04:47:32.181Z,4.03
2023-03-20T04:49:59.229Z,4.07
2023-03-20T04:52:26.389Z,4.12
2023-03-20T04:54:53.368Z,4.10
2023-03-20T04:57:20.446Z,4.09
2023-03-20T04:59:47.755Z,4.06
2023-03-20T05:02:15.267Z,4.09
2023-03-20T05:04:43.110Z,4.20
2023-03-20T05:07:10.966Z,4.20
2023-03-20T05:09:50.786Z,4.07
2023-03-20T05:12:18.971Z,4.12
2023-03-20T05:14:46.010Z,4.21
2023-03-20T05:17:36.583Z,4.27
2023-03-20T05:20:12.576Z,4.18
2023-03-20T05:23:06.434Z,4.31
2023-03-20T05:25:53.958Z,4.34
2023-03-20T05:28:41.400Z,4.35
2023-03-20T05:35:43.226Z,4.25
2023-03-20T05:38:28.985Z,4.31
2023-03-20T05:41:14.213Z,4.32
2023-03-20T05:44:01.581Z,4.41
2023-03-20T05:46:51.681Z,4.50
2023-03-20T05:49:34.917Z,4.64
2023-03-20T05:52:04.958Z,4.57
2023-03-20T05:54:58.071Z,4.57
2023-03-20T05:57:39.380Z,4.46
2023-03-20T06:00:39.199Z,4.63
2023-03-20T06:03:32.245Z,4.61
2023-03-20T06:06:10.287Z,4.66
2023-03-20T06:08:37.262Z,4.76
2023-03-20T06:11:05.911Z,4.86
2023-03-20T06:13:36.799Z,4.91
2023-03-20T06:16:05.054Z,4.79
2023-03-20T06:18:32.270Z,4.86
2023-03-20T06:20:59.461Z,4.86
2023-03-20T06:23:29.047Z,4.88
2023-03-20T06:25:56.390Z,4.83
2023-03-20T06:28:23.653Z,4.90
2023-03-20T06:30:58.934Z,4.94
2023-03-20T06:33:26.592Z,4.90
2023-03-20T06:36:01.277Z,5.01
2023-03-20T06:38:31.005Z,5.11
2023-03-20T06:41:00.188Z,4.95
2023-03-20T06:43:28.516Z,4.89
2023-03-20T06:45:55.546Z,4.99
2023-03-20T06:48:26.246Z,5.05
2023-03-20T06:50:53.959Z,5.18
2023-03-20T06:53:24.676Z,5.20
2023-03-20T06:55:58.889Z,5.10
2023-03-20T06:58:25.991Z,5.19
2023-03-20T07:00:54.798Z,5.34
2023-03-20T07:03:22.110Z,5.27
2023-03-20T07:05:51.022Z,5.32
2023-03-20T07:08:19.311Z,5.42
2023-03-20T07:10:47.019Z,5.29
2023-03-20T07:13:15.279Z,5.10
2023-03-20T07:15:57.454Z,5.08
2023-03-20T07:18:30.268Z,5.24
2023-03-20T07:21:04.247Z,5.10
2023-03-20T07:23:34.627Z,5.21
2023-03-20T07:26:03.588Z,5.13
2023-03-20T07:28:31.164Z,5.19
2023-03-20T07:31:20.770Z,5.27
2023-03-20T07:33:49.844Z,4.98
2023-03-20T07:36:18.025Z,5.01
2023-03-20T07:38:45.477Z,5.34
2023-03-20T07:41:13.198Z,5.42
2023-03-20T07:43:45.752Z,5.46
2023-03-20T07:46:15.581Z,5.43
2023-03-20T07:48:42.752Z,5.47
2023-03-20T07:51:09.875Z,5.57
2023-03-20T07:53:37.192Z,5.68
2023-03-20T07:56:04.857Z,5.64
2023-03-20T07:58:32.086Z,5.67
2023-03-20T08:01:03.198Z,5.59
2023-03-20T08:03:30.614Z,5.46
2023-03-20T08:05:57.891Z,5.49
2023-03-20T08:08:24.892Z,5.80
2023-03-20T08:10:51.881Z,5.71
2023-03-20T08:13:19.014Z,5.86
2023-03-20T08:15:47.393Z,5.81
2023-03-20T08:18:14.497Z,5.98
2023-03-20T08:20:41.850Z,6.09
2023-03-20T08:23:08.907Z,6.06
2023-03-20T08:25:36.185Z,6.04
2023-03-20T08:28:04.225Z,6.19
2023-03-20T08:30:32.074Z,6.21
2023-03-20T08:32:59.283Z,5.87
2023-03-20T08:35:33.372Z,6.20
2023-03-20T08:38:01.725Z,6.36
2023-03-20T08:41:01.221Z,6.30
2023-03-20T08:43:28.349Z,6.23
2023-03-20T08:45:55.819Z,6.45
2023-03-20T08:48:23.091Z,6.43
2023-03-20T08:50:50.280Z,6.25
2023-03-20T08:53:17.316Z,6.37
2023-03-20T08:55:52.253Z,6.49
2023-03-20T08:58:20.575Z,6.38
2023-03-20T09:00:47.830Z,6.47
2023-03-20T09:03:16.772Z,6.57
2023-03-20T09:05:45.610Z,6.49
2023-03-20T09:08:13.379Z,6.61
2023-03-20T09:10:43.020Z,6.76
2023-03-20T09:13:26.066Z,6.96
2023-03-20T09:15:55.287Z,6.86
2023-03-20T09:18:23.469Z,6.91
2023-03-20T09:20:51.082Z,7.02
2023-03-20T09:23:18.699Z,7.08
2023-03-20T09:25:47.159Z,7.43
2023-03-20T09:28:14.367Z,7.58
2023-03-20T09:30:43.646Z,7.67
2023-03-20T09:33:11.579Z,7.76
2023-03-20T09:35:38.995Z,7.59
2023-03-20T09:38:06.868Z,7.49
2023-03-20T09:40:40.061Z,7.65
2023-03-20T09:43:31.817Z,7.65
2023-03-20T10:17:20.433Z,9.43
2023-03-20T10:20:09.856Z,9.96
2023-03-20T10:22:42.189Z,10.26
2023-03-20T10:25:24.306Z,10.20
2023-03-20T10:28:04.484Z,10.57
2023-03-20T10:31:06.297Z,10.97
2023-03-20T10:33:51.878Z,11.15
2023-03-20T10:36:36.089Z,11.56
2023-03-20T10:39:17.126Z,11.71
2023-03-20T10:41:53.319Z,11.92
2023-03-20T10:44:39.083Z,12.15
2023-03-20T10:47:12.173Z,12.40
2023-03-20T10:49:46.600Z,12.39
2023-03-20T10:52:36.258Z,12.78
2023-03-20T10:55:37.639Z,12.33
2023-03-20T10:58:26.767Z,12.24
2023-03-20T11:00:56.358Z,12.44
2023-03-20T11:03:28.025Z,12.35
2023-03-20T11:06:10.656Z,12.91
2023-03-20T11:08:43.226Z,12.27
2023-03-20T11:11:10.894Z,12.61
2023-03-20T11:13:43.744Z,12.71
2023-03-20T11:16:23.113Z,13.05
2023-03-20T11:18:52.572Z,13.39
2023-03-20T11:21:28.568Z,12.82
2023-03-20T11:23:56.197Z,13.05
2023-03-20T11:26:40.781Z,13.20
2023-03-20T11:29:17.644Z,13.36
2023-03-20T11:31:44.805Z,13.21
2023-03-20T11:34:14.791Z,13.24
2023-03-20T11:37:21.129Z,12.88
2023-03-20T11:39:59.620Z,13.06
2023-03-20T11:42:30.503Z,13.20
2023-03-20T11:45:00.127Z,13.49
2023-03-20T11:47:29.317Z,13.49
2023-03-20T11:49:59.799Z,13.16
2023-03-20T11:53:35.835Z,12.60
2023-03-20T11:56:13.499Z,13.06
2023-03-20T11:59:10.573Z,12.99
2023-03-20T12:01:58.303Z,12.82
2023-03-20T12:04:34.122Z,12.76
2023-03-20T12:07:13.264Z,12.46
2023-03-20T12:09:42.783Z,12.59
2023-03-20T12:12:19.187Z,12.69
2023-03-20T12:14:56.034Z,12.76
2023-03-20T12:17:54.577Z,12.63
2023-03-20T12:20:37.095Z,12.20
2023-03-20T12:23:31.399Z,12.41
2023-03-20T12:26:04.365Z,12.36
2023-03-20T12:28:46.497Z,12.00
2023-03-20T12:31:30.805Z,11.61
2023-03-20T12:34:35.827Z,11.43
2023-03-20T12:37:03.021Z,11.52
2023-03-20T12:39:41.622Z,11.79
2023-03-20T12:42:11.620Z,12.04
2023-03-20T12:45:01.489Z,11.91
2023-03-20T12:47:53.473Z,11.90
2023-03-20T12:50:23.330Z,11.62
2023-03-20T12:53:59.967Z,11.37
2023-03-20T12:56:41.703Z,10.58
2023-03-20T12:59:08.652Z,10.69
2023-03-20T13:02:08.090Z,10.83
2023-03-20T13:05:07.177Z,11.19
2023-03-20T13:08:02.010Z,10.93
2023-03-20T13:10:41.790Z,11.05
2023-03-20T13:13:56.122Z,10.89
2023-03-20T13:16:33.619Z,10.62
2023-03-20T13:19:08.196Z,10.52
2023-03-20T13:21:46.022Z,10.54
2023-03-20T13:25:22.590Z,10.33
2023-03-20T13:28:15.863Z,10.57
2023-03-20T13:31:06.823Z,10.54
2023-03-20T13:33:39.735Z,10.32
2023-03-20T13:36:37.240Z,10.20
2023-03-20T13:39:18.345Z,10.00
2023-03-20T13:41:48.289Z,9.68
2023-03-20T13:44:21.076Z,9.56
2023-03-20T13:46:52.315Z,9.30
2023-03-20T13:49:34.134Z,9.34
2023-03-20T13:52:19.648Z,9.33
2023-03-20T13:55:19.961Z,9.31
2023-03-20T13:58:03.940Z,9.30
2023-03-20T14:01:03.088Z,9.61
2023-03-20T14:03:37.231Z,9.56
2023-03-20T14:06:50.166Z,9.61
2023-03-20T14:09:31.233Z,9.33
2023-03-20T14:12:18.352Z,8.91
2023-03-20T14:14:55.729Z,8.79
2023-03-20T14:17:27.593Z,8.61
2023-03-20T14:19:56.665Z,8.63
2023-03-20T14:22:35.673Z,8.73
2023-03-20T14:25:08.879Z,8.64
2023-03-20T14:27:53.267Z,8.75
2023-03-20T14:30:32.509Z,8.80
2023-03-20T14:33:06.346Z,8.59
2023-03-20T14:35:38.775Z,8.40
2023-03-20T14:38:29.898Z,8.23
2023-03-20T14:41:11.962Z,8.42
2023-03-20T14:43:51.217Z,8.37
2023-03-20T14:46:31.694Z,8.31
2023-03-20T14:50:09.086Z,8.25
2023-03-20T14:52:44.958Z,8.05
2023-03-20T14:55:30.851Z,8.10
2023-03-20T14:58:03.253Z,8.20
2023-03-20T15:00:36.439Z,8.40
2023-03-20T15:03:14.131Z,8.30
2023-03-20T15:05:42.388Z,8.16
2023-03-20T15:08:24.917Z,8.14
2023-03-20T15:10:56.701Z,7.98
2023-03-20T15:13:25.937Z,8.19
2023-03-20T15:16:07.130Z,7.98
2023-03-20T15:18:51.057Z,7.84
2023-03-20T15:22:26.809Z,7.76
2023-03-20T15:24:56.884Z,7.93
2023-03-20T15:27:29.821Z,7.82
2023-03-20T15:30:00.431Z,7.76
2023-03-20T15:32:27.478Z,7.73
2023-03-20T15:34:54.716Z,7.63
2023-03-20T15:37:25.086Z,7.66
2023-03-20T15:39:56.874Z,7.61
2023-03-20T15:42:25.651Z,7.74
2023-03-20T15:45:22.113Z,7.54
2023-03-20T15:47:49.081Z,7.42
2023-03-20T15:50:16.711Z,7.22
2023-03-20T15:52:53.197Z,7.25
2023-03-20T15:55:23.266Z,7.42
2023-03-20T15:57:54.119Z,7.42
2023-03-20T16:00:44.244Z,7.31
2023-03-20T16:03:17.110Z,7.16
2023-03-20T16:05:45.678Z,7.12
2023-03-20T16:08:24.337Z,7.29
2023-03-20T16:10:57.386Z,7.13
2023-03-20T16:13:25.440Z,6.97
2023-03-20T16:15:54.600Z,6.88
2023-03-20T16:18:22.233Z,6.89
2023-03-20T16:20:58.111Z,6.98
2023-03-20T16:23:38.730Z,7.01
2023-03-20T16:26:08.958Z,6.89
2023-03-20T16:28:38.052Z,6.92
2023-03-20T16:31:29.631Z,6.73
2023-03-20T16:34:07.950Z,6.75
2023-03-20T16:36:37.519Z,6.78
2023-03-20T16:39:04.454Z,6.83
2023-03-20T16:41:45.081Z,6.71
2023-03-20T16:44:18.255Z,6.59
2023-03-20T16:47:01.631Z,6.60
2023-03-20T16:49:34.803Z,6.54
2023-03-20T16:52:05.343Z,6.72
2023-03-20T16:54:36.542Z,6.80
2023-03-20T16:57:09.621Z,6.66
2023-03-20T17:00:20.210Z,6.52
2023-03-20T17:03:13.534Z,6.43
2023-03-20T17:06:04.626Z,6.55
2023-03-20T17:08:42.030Z,6.70
2023-03-20T17:11:33.629Z,6.64
2023-03-20T17:14:01.399Z,6.50
2023-03-20T17:16:28.989Z,6.47
2023-03-20T17:19:01.578Z,6.58
2023-03-20T17:21:30.054Z,6.75
2023-03-20T17:23:57.573Z,6.70
2023-03-20T17:26:24.809Z,6.71
2023-03-20T17:28:51.826Z,6.55
2023-03-20T17:31:19.501Z,6.52
2023-03-20T17:33:46.941Z,6.69
2023-03-20T17:36:25.634Z,6.83
2023-03-20T17:38:53.396Z,6.78
2023-03-20T17:41:21.268Z,6.74
2023-03-20T17:44:20.471Z,6.58
2023-03-20T17:46:57.701Z,6.57
2023-03-20T17:49:27.751Z,6.53
2023-03-20T17:51:55.948Z,6.73
2023-03-20T17:54:22.997Z,6.63
2023-03-20T17:56:50.046Z,6.59
2023-03-20T17:59:17.089Z,6.50
2023-03-20T18:05:39.404Z,6.69
2023-03-20T18:08:14.124Z,6.62
2023-03-20T18:10:41.975Z,6.50
2023-03-20T18:13:09.124Z,6.41
2023-03-20T18:15:38.329Z,6.52
2023-03-20T18:18:06.137Z,6.67
2023-03-20T18:20:35.088Z,6.74
2023-03-20T18:23:02.308Z,6.64
2023-03-20T18:25:30.280Z,6.44
2023-03-20T18:27:59.298Z,6.47
2023-03-20T18:30:38.830Z,6.51
2023-03-20T18:33:06.408Z,6.68
2023-03-20T18:35:34.592Z,6.73
2023-03-20T18:38:02.143Z,6.62
2023-03-20T18:40:38.399Z,6.53
2023-03-20T18:43:06.016Z,6.59
2023-03-20T18:45:33.035Z,6.61
2023-03-20T18:48:03.834Z,6.79
2023-03-20T18:50:33.976Z,6.74
2023-03-20T18:53:04.328Z,6.73
2023-03-20T18:55:32.230Z,6.59
2023-03-20T18:57:59.641Z,6.59
2023-03-20T19:00:36.130Z,6.61
2023-03-20T19:03:04.136Z,6.66
2023-03-20T19:05:31.538Z,6.55
2023-03-20T19:08:00.139Z,6.55
2023-03-20T19:10:39.501Z,6.42
2023-03-20T19:13:07.798Z,6.47
2023-03-20T19:15:37.427Z,6.47
2023-03-20T19:18:15.583Z,6.68
2023-03-20T19:20:48.255Z,6.69
2023-03-20T19:23:17.632Z,6.60
2023-03-20T19:25:47.607Z,6.48
2023-03-20T19:28:39.061Z,6.35
2023-03-20T19:31:09.748Z,6.63
2023-03-20T19:33:38.529Z,6.58
2023-03-20T19:36:06.926Z,6.49
2023-03-20T19:38:34.619Z,6.41
2023-03-20T19:41:03.887Z,6.43
2023-03-20T19:43:30.976Z,6.43
2023-03-20T19:45:59.227Z,6.55
2023-03-20T19:48:47.019Z,6.61
2023-03-20T19:51:21.765Z,6.60
2023-03-20T19:53:49.938Z,6.42
2023-03-20T19:56:19.495Z,6.44
2023-03-20T19:58:47.547Z,6.46
2023-03-20T20:01:19.979Z,6.65
2023-03-20T20:03:48.342Z,6.57
2023-03-20T20:06:16.003Z,6.46
2023-03-20T20:08:48.267Z,6.45
2023-03-20T20:11:19.056Z,6.33
2023-03-20T20:16:40.153Z,6.48
2023-03-20T20:19:07.726Z,6.48
2023-03-20T20:27:52.606Z,6.48
2023-03-20T20:30:21.063Z,6.34
2023-03-20T20:32:48.174Z,6.38
2023-03-20T20:35:41.930Z,6.24
2023-03-20T20:38:40.454Z,6.26
2023-03-20T20:40:50.353Z,6.46
2023-03-20T20:43:39.275Z,6.55
2023-03-20T20:46:04.743Z,6.47
2023-03-20T20:48:32.373Z,6.43
2023-03-20T20:51:01.340Z,6.44
2023-03-20T20:54:37.718Z,6.40
2023-03-20T20:57:04.800Z,6.54
2023-03-20T20:59:32.080Z,6.48
2023-03-20T21:01:59.257Z,6.44
2023-03-20T21:04:45.250Z,6.31
2023-03-20T21:07:13.313Z,6.20
2023-03-20T21:09:41.544Z,6.48
2023-03-20T21:12:22.685Z,6.50
2023-03-20T21:14:57.625Z,6.55
2023-03-20T21:17:25.920Z,6.46
2023-03-20T21:19:53.020Z,6.37
2023-03-20T21:22:22.462Z,6.34
2023-03-20T21:24:53.799Z,6.55
2023-03-20T21:27:26.014Z,6.45
2023-03-20T21:29:53.038Z,6.35
2023-03-20T21:32:21.743Z,6.18
2023-03-20T21:34:49.665Z,6.13
2023-03-20T21:40:09.233Z,6.37
2023-03-20T21:42:37.090Z,6.30
2023-03-20T21:46:06.670Z,6.22
2023-03-20T21:48:30.665Z,6.13
2023-03-20T21:58:17.705Z,6.28
2023-03-20T22:03:01.581Z,6.18
2023-03-20T22:06:12.773Z,6.22
2023-03-20T22:09:21.338Z,6.32
2023-03-20T22:14:44.726Z,6.14
2023-03-20T22:20:18.416Z,6.13
2023-03-20T22:23:15.308Z,6.25
2023-03-20T22:38:08.521Z,6.16
2023-03-20T22:41:22.933Z,6.13
2023-03-20T22:44:02.431Z,6.00
2023-03-20T22:46:05.881Z,5.96
2023-03-20T22:48:37.153Z,5.95
2023-03-20T22:51:04.791Z,6.15
2023-03-20T22:53:32.557Z,6.08
2023-03-20T22:56:00.478Z,6.11
2023-03-20T22:58:27.734Z,6.04
2023-03-20T23:00:55.297Z,6.18
2023-03-20T23:03:39.857Z,6.22
2023-03-20T23:06:29.064Z,6.29
2023-03-20T23:08:58.353Z,6.26
2023-03-20T23:11:27.793Z,6.11
2023-03-20T23:13:54.961Z,6.21
2023-03-20T23:16:22.030Z,6.27
2023-03-20T23:18:49.051Z,6.40
2023-03-20T23:21:16.070Z,6.35
2023-03-20T23:23:43.074Z,6.30
2023-03-20T23:26:15.611Z,6.11
2023-03-20T23:28:44.709Z,6.19
2023-03-20T23:31:16.236Z,6.42
2023-03-20T23:33:48.509Z,6.42
2023-03-20T23:36:32.701Z,6.38
2023-03-20T23:39:01.844Z,6.28
2023-03-20T23:41:57.614Z,6.24
2023-03-20T23:44:15.947Z,6.25
2023-03-20T23:46:42.968Z,6.50
2023-03-20T23:49:10.059Z,6.47
2023-03-20T23:51:37.096Z,6.41
2023-03-20T23:54:04.199Z,6.26
2023-03-20T23:56:31.281Z,6.34
2023-03-20T23:59:30.681Z,6.48
